sensor_id;sensor_type;location;lat;lon;timestamp;pressure;altitude;pressure_sealevel;temperature;humidity
50226;BME280;36113;50.742;6.432;2024-03-17T00:02:01;99529.28;;;5.15;79.36
50226;BME280;36113;50.742;6.432;2024-03-17T00:04:26;99512.13;;;5.10;79.52
50226;BME280;36113;50.742;6.432;2024-03-17T00:06:52;99517.88;;;5.13;79.29
50226;BME280;36113;50.742;6.432;2024-03-17T00:09:18;99510.88;;;5.12;79.18
50226;BME280;36113;50.742;6.432;2024-03-17T00:11:44;99518.75;;;5.14;79.04
50226;BME280;36113;50.742;6.432;2024-03-17T00:14:10;99525.31;;;5.18;79.03
50226;BME280;36113;50.742;6.432;2024-03-17T00:16:35;99515.19;;;5.13;78.72
50226;BME280;36113;50.742;6.432;2024-03-17T00:19:00;99520.78;;;5.18;78.89
50226;BME280;36113;50.742;6.432;2024-03-17T00:21:26;99514.97;;;5.15;79.20
50226;BME280;36113;50.742;6.432;2024-03-17T00:23:51;99513.75;;;5.11;79.75
50226;BME280;36113;50.742;6.432;2024-03-17T00:26:17;99513.16;;;5.09;79.79
50226;BME280;36113;50.742;6.432;2024-03-17T00:28:44;99515.91;;;5.02;80.00
50226;BME280;36113;50.742;6.432;2024-03-17T00:31:12;99522.09;;;5.09;80.37
50226;BME280;36113;50.742;6.432;2024-03-17T00:33:37;99508.66;;;5.03;80.32
50226;BME280;36113;50.742;6.432;2024-03-17T00:36:02;99508.00;;;5.07;80.40
50226;BME280;36113;50.742;6.432;2024-03-17T00:38:28;99497.22;;;5.07;80.19
50226;BME280;36113;50.742;6.432;2024-03-17T00:40:54;99507.56;;;5.10;79.79
50226;BME280;36113;50.742;6.432;2024-03-17T00:43:19;99518.50;;;5.15;80.03
50226;BME280;36113;50.742;6.432;2024-03-17T00:45:51;99495.56;;;5.06;79.64
50226;BME280;36113;50.742;6.432;2024-03-17T00:48:17;99500.91;;;5.13;79.55
50226;BME280;36113;50.742;6.432;2024-03-17T00:50:42;99505.03;;;5.15;80.00
50226;BME280;36113;50.742;6.432;2024-03-17T00:53:10;99499.88;;;5.14;80.32
50226;BME280;36113;50.742;6.432;2024-03-17T00:55:35;99490.13;;;5.13;80.11
50226;BME280;36113;50.742;6.432;2024-03-17T00:58:00;99477.31;;;5.08;80.40
50226;BME280;36113;50.742;6.432;2024-03-17T01:00:26;99482.28;;;5.05;80.12
50226;BME280;36113;50.742;6.432;2024-03-17T01:02:51;99480.66;;;5.04;80.40
50226;BME280;36113;50.742;6.432;2024-03-17T01:05:16;99489.19;;;5.01;80.56
50226;BME280;36113;50.742;6.432;2024-03-17T01:07:42;99484.84;;;5.00;81.02
50226;BME280;36113;50.742;6.432;2024-03-17T01:10:07;99485.88;;;4.98;80.89
50226;BME280;36113;50.742;6.432;2024-03-17T01:12:34;99451.22;;;4.77;81.61
50226;BME280;36113;50.742;6.432;2024-03-17T01:14:59;99476.44;;;4.89;81.87
50226;BME280;36113;50.742;6.432;2024-03-17T01:17:24;99480.59;;;4.85;81.92
50226;BME280;36113;50.742;6.432;2024-03-17T01:19:50;99439.97;;;4.55;82.35
50226;BME280;36113;50.742;6.432;2024-03-17T01:22:16;99465.19;;;4.67;82.23
50226;BME280;36113;50.742;6.432;2024-03-17T01:24:42;99439.56;;;4.51;82.40
50226;BME280;36113;50.742;6.432;2024-03-17T01:27:11;99458.13;;;4.66;82.68
50226;BME280;36113;50.742;6.432;2024-03-17T01:29:39;99467.63;;;4.69;82.94
50226;BME280;36113;50.742;6.432;2024-03-17T01:32:05;99458.56;;;4.63;82.87
50226;BME280;36113;50.742;6.432;2024-03-17T01:34:31;99464.97;;;4.62;83.41
50226;BME280;36113;50.742;6.432;2024-03-17T01:36:56;99458.16;;;4.60;83.58
50226;BME280;36113;50.742;6.432;2024-03-17T01:39:22;99441.22;;;4.52;83.61
50226;BME280;36113;50.742;6.432;2024-03-17T01:41:47;99453.44;;;4.55;83.89
50226;BME280;36113;50.742;6.432;2024-03-17T01:44:27;99462.56;;;4.54;83.57
50226;BME280;36113;50.742;6.432;2024-03-17T01:46:53;99448.28;;;4.47;84.20
50226;BME280;36113;50.742;6.432;2024-03-17T01:49:20;99443.75;;;4.47;84.05
50226;BME280;36113;50.742;6.432;2024-03-17T01:51:46;99445.59;;;4.47;84.06
50226;BME280;36113;50.742;6.432;2024-03-17T01:54:12;99413.25;;;4.22;83.89
50226;BME280;36113;50.742;6.432;2024-03-17T01:56:39;99413.66;;;4.25;83.81
50226;BME280;36113;50.742;6.432;2024-03-17T01:59:04;99454.53;;;4.47;84.09
50226;BME280;36113;50.742;6.432;2024-03-17T02:01:30;99449.75;;;4.43;84.30
50226;BME280;36113;50.742;6.432;2024-03-17T02:03:56;99458.06;;;4.41;84.39
50226;BME280;36113;50.742;6.432;2024-03-17T02:06:21;99440.09;;;4.35;84.26
50226;BME280;36113;50.742;6.432;2024-03-17T02:08:53;99443.34;;;4.44;84.32
50226;BME280;36113;50.742;6.432;2024-03-17T02:13:55;99436.28;;;4.43;84.15
50226;BME280;36113;50.742;6.432;2024-03-17T02:16:20;99425.97;;;4.40;83.95
50226;BME280;36113;50.742;6.432;2024-03-17T02:18:47;99430.50;;;4.46;83.78
50226;BME280;36113;50.742;6.432;2024-03-17T02:21:13;99394.97;;;4.30;83.69
50226;BME280;36113;50.742;6.432;2024-03-17T02:23:40;99426.75;;;4.47;83.74
50226;BME280;36113;50.742;6.432;2024-03-17T02:26:05;99423.84;;;4.48;83.48
50226;BME280;36113;50.742;6.432;2024-03-17T02:28:38;99418.47;;;4.48;83.42
50226;BME280;36113;50.742;6.432;2024-03-17T02:31:05;99428.75;;;4.58;83.24
50226;BME280;36113;50.742;6.432;2024-03-17T02:33:30;99392.44;;;4.35;83.47
50226;BME280;36113;50.742;6.432;2024-03-17T02:35:55;99412.63;;;4.51;83.50
50226;BME280;36113;50.742;6.432;2024-03-17T02:38:21;99421.28;;;4.60;83.35
50226;BME280;36113;50.742;6.432;2024-03-17T02:41:06;99426.25;;;4.63;83.67
50226;BME280;36113;50.742;6.432;2024-03-17T02:43:31;99413.22;;;4.60;83.39
50226;BME280;36113;50.742;6.432;2024-03-17T02:45:57;99418.78;;;4.65;83.58
50226;BME280;36113;50.742;6.432;2024-03-17T02:48:22;99411.94;;;4.63;83.89
50226;BME280;36113;50.742;6.432;2024-03-17T02:50:48;99405.31;;;4.65;83.81
50226;BME280;36113;50.742;6.432;2024-03-17T02:53:13;99405.94;;;4.67;83.66
50226;BME280;36113;50.742;6.432;2024-03-17T02:55:39;99402.19;;;4.68;84.13
50226;BME280;36113;50.742;6.432;2024-03-17T02:58:04;99403.00;;;4.69;83.83
50226;BME280;36113;50.742;6.432;2024-03-17T03:00:29;99407.50;;;4.75;83.87
50226;BME280;36113;50.742;6.432;2024-03-17T03:02:55;99401.53;;;4.73;83.94
50226;BME280;36113;50.742;6.432;2024-03-17T03:05:20;99413.31;;;4.79;83.90
50226;BME280;36113;50.742;6.432;2024-03-17T03:07:45;99395.09;;;4.74;84.07
50226;BME280;36113;50.742;6.432;2024-03-17T03:10:11;99409.72;;;4.85;83.91
50226;BME280;36113;50.742;6.432;2024-03-17T03:12:36;99410.75;;;4.84;83.89
50226;BME280;36113;50.742;6.432;2024-03-17T03:15:01;99385.97;;;4.75;83.93
50226;BME280;36113;50.742;6.432;2024-03-17T03:17:26;99405.31;;;4.90;83.68
50226;BME280;36113;50.742;6.432;2024-03-17T03:19:52;99409.66;;;4.91;83.51
50226;BME280;36113;50.742;6.432;2024-03-17T03:22:17;99410.72;;;4.90;83.63
50226;BME280;36113;50.742;6.432;2024-03-17T03:24:42;99401.56;;;4.91;83.61
50226;BME280;36113;50.742;6.432;2024-03-17T03:27:08;99412.53;;;4.96;83.38
50226;BME280;36113;50.742;6.432;2024-03-17T03:29:33;99395.75;;;4.94;83.59
50226;BME280;36113;50.742;6.432;2024-03-17T03:31:59;99411.06;;;5.01;82.98
50226;BME280;36113;50.742;6.432;2024-03-17T03:34:24;99395.91;;;5.00;83.28
50226;BME280;36113;50.742;6.432;2024-03-17T03:36:49;99392.78;;;5.03;82.82
50226;BME280;36113;50.742;6.432;2024-03-17T03:39:15;99391.53;;;5.05;82.59
50226;BME280;36113;50.742;6.432;2024-03-17T03:41:40;99390.88;;;5.10;82.91
50226;BME280;36113;50.742;6.432;2024-03-17T03:44:06;99398.13;;;5.09;82.62
50226;BME280;36113;50.742;6.432;2024-03-17T03:46:31;99396.25;;;5.10;82.77
50226;BME280;36113;50.742;6.432;2024-03-17T03:48:57;99367.16;;;4.93;82.34
50226;BME280;36113;50.742;6.432;2024-03-17T03:51:22;99384.94;;;5.01;82.16
50226;BME280;36113;50.742;6.432;2024-03-17T03:53:50;99382.03;;;5.03;82.12
50226;BME280;36113;50.742;6.432;2024-03-17T03:56:16;99389.66;;;5.06;81.90
50226;BME280;36113;50.742;6.432;2024-03-17T03:58:42;99389.44;;;5.07;81.72
50226;BME280;36113;50.742;6.432;2024-03-17T04:01:09;99383.81;;;5.09;81.83
50226;BME280;36113;50.742;6.432;2024-03-17T04:03:36;99375.13;;;5.07;81.76
50226;BME280;36113;50.742;6.432;2024-03-17T04:06:08;99377.00;;;5.06;81.44
50226;BME280;36113;50.742;6.432;2024-03-17T04:08:37;99376.56;;;5.09;81.69
50226;BME280;36113;50.742;6.432;2024-03-17T04:11:03;99366.44;;;5.05;81.39
50226;BME280;36113;50.742;6.432;2024-03-17T04:13:29;99378.19;;;5.10;81.45
50226;BME280;36113;50.742;6.432;2024-03-17T04:15:57;99371.94;;;5.16;80.89
50226;BME280;36113;50.742;6.432;2024-03-17T04:18:24;99359.50;;;5.15;80.87
50226;BME280;36113;50.742;6.432;2024-03-17T04:20:56;99348.34;;;5.12;80.49
50226;BME280;36113;50.742;6.432;2024-03-17T04:23:22;99358.59;;;5.22;80.39
50226;BME280;36113;50.742;6.432;2024-03-17T04:25:48;99353.81;;;5.24;80.33
50226;BME280;36113;50.742;6.432;2024-03-17T04:28:15;99359.22;;;5.24;80.38
50226;BME280;36113;50.742;6.432;2024-03-17T04:30:40;99354.41;;;5.26;80.25
50226;BME280;36113;50.742;6.432;2024-03-17T04:33:06;99336.66;;;5.18;80.32
50226;BME280;36113;50.742;6.432;2024-03-17T04:35:38;99333.59;;;5.14;80.10
50226;BME280;36113;50.742;6.432;2024-03-17T04:38:04;99337.09;;;5.15;80.28
50226;BME280;36113;50.742;6.432;2024-03-17T04:40:31;99335.91;;;5.11;79.71
50226;BME280;36113;50.742;6.432;2024-03-17T04:42:56;99347.88;;;5.15;79.65
50226;BME280;36113;50.742;6.432;2024-03-17T04:45:21;99338.19;;;5.14;79.51
50226;BME280;36113;50.742;6.432;2024-03-17T04:47:46;99346.25;;;5.14;79.29
50226;BME280;36113;50.742;6.432;2024-03-17T04:50:12;99344.16;;;5.16;79.46
50226;BME280;36113;50.742;6.432;2024-03-17T04:52:38;99344.16;;;5.16;79.56
50226;BME280;36113;50.742;6.432;2024-03-17T04:55:04;99337.31;;;5.13;79.62
50226;BME280;36113;50.742;6.432;2024-03-17T04:57:29;99333.81;;;5.13;79.91
50226;BME280;36113;50.742;6.432;2024-03-17T04:59:55;99330.75;;;5.09;79.65
50226;BME280;36113;50.742;6.432;2024-03-17T05:02:20;99338.25;;;5.07;79.97
50226;BME280;36113;50.742;6.432;2024-03-17T05:04:46;99333.06;;;5.06;79.88
50226;BME280;36113;50.742;6.432;2024-03-17T05:07:11;99330.44;;;4.99;79.86
50226;BME280;36113;50.742;6.432;2024-03-17T05:09:37;99340.09;;;5.07;79.86
50226;BME280;36113;50.742;6.432;2024-03-17T05:12:02;99344.50;;;5.01;80.21
50226;BME280;36113;50.742;6.432;2024-03-17T05:14:27;99338.19;;;4.89;80.39
50226;BME280;36113;50.742;6.432;2024-03-17T05:16:53;99345.38;;;4.95;80.25
50226;BME280;36113;50.742;6.432;2024-03-17T05:19:18;99342.31;;;4.91;80.29
50226;BME280;36113;50.742;6.432;2024-03-17T05:21:45;99321.66;;;4.85;80.37
50226;BME280;36113;50.742;6.432;2024-03-17T05:24:10;99341.66;;;4.96;80.57
50226;BME280;36113;50.742;6.432;2024-03-17T05:26:37;99334.00;;;4.93;80.68
50226;BME280;36113;50.742;6.432;2024-03-17T05:29:02;99337.47;;;5.00;80.19
50226;BME280;36113;50.742;6.432;2024-03-17T05:31:27;99338.13;;;4.95;80.53
50226;BME280;36113;50.742;6.432;2024-03-17T05:33:53;99340.41;;;4.98;80.33
50226;BME280;36113;50.742;6.432;2024-03-17T05:36:18;99327.81;;;4.92;80.74
50226;BME280;36113;50.742;6.432;2024-03-17T05:38:45;99337.69;;;4.98;80.70
50226;BME280;36113;50.742;6.432;2024-03-17T05:41:10;99332.97;;;4.94;80.62
50226;BME280;36113;50.742;6.432;2024-03-17T05:43:37;99335.97;;;5.04;80.76
50226;BME280;36113;50.742;6.432;2024-03-17T05:46:04;99343.78;;;5.12;80.41
50226;BME280;36113;50.742;6.432;2024-03-17T05:48:36;99340.78;;;5.21;79.99
50226;BME280;36113;50.742;6.432;2024-03-17T05:51:03;99327.75;;;5.17;80.10
50226;BME280;36113;50.742;6.432;2024-03-17T05:53:29;99333.25;;;5.29;79.62
50226;BME280;36113;50.742;6.432;2024-03-17T05:55:58;99338.84;;;5.46;79.69
50226;BME280;36113;50.742;6.432;2024-03-17T05:58:23;99343.47;;;5.57;79.43
50226;BME280;36113;50.742;6.432;2024-03-17T06:00:49;99337.19;;;5.64;79.26
50226;BME280;36113;50.742;6.432;2024-03-17T06:03:14;99332.53;;;5.71;79.00
50226;BME280;36113;50.742;6.432;2024-03-17T06:05:40;99344.66;;;5.80;79.09
50226;BME280;36113;50.742;6.432;2024-03-17T06:08:06;99343.91;;;5.91;79.10
50226;BME280;36113;50.742;6.432;2024-03-17T06:10:34;99330.56;;;5.96;78.71
50226;BME280;36113;50.742;6.432;2024-03-17T06:13:00;99336.81;;;6.09;77.89
50226;BME280;36113;50.742;6.432;2024-03-17T06:15:26;99324.19;;;6.09;77.97
50226;BME280;36113;50.742;6.432;2024-03-17T06:17:52;99306.91;;;6.10;77.33
50226;BME280;36113;50.742;6.432;2024-03-17T06:20:22;99302.25;;;6.17;76.85
50226;BME280;36113;50.742;6.432;2024-03-17T06:22:49;99328.28;;;6.42;76.48
50226;BME280;36113;50.742;6.432;2024-03-17T06:25:15;99328.00;;;6.43;76.00
50226;BME280;36113;50.742;6.432;2024-03-17T06:27:41;99323.69;;;6.54;75.53
50226;BME280;36113;50.742;6.432;2024-03-17T06:30:11;99318.88;;;6.56;75.16
50226;BME280;36113;50.742;6.432;2024-03-17T06:32:39;99316.56;;;6.60;75.24
50226;BME280;36113;50.742;6.432;2024-03-17T06:35:05;99320.88;;;6.73;75.09
50226;BME280;36113;50.742;6.432;2024-03-17T06:37:30;99316.22;;;6.80;74.79
50226;BME280;36113;50.742;6.432;2024-03-17T06:39:56;99313.84;;;6.83;74.48
50226;BME280;36113;50.742;6.432;2024-03-17T06:42:21;99302.91;;;6.90;73.81
50226;BME280;36113;50.742;6.432;2024-03-17T06:44:47;99318.56;;;7.12;73.79
50226;BME280;36113;50.742;6.432;2024-03-17T06:47:12;99313.72;;;7.25;73.35
50226;BME280;36113;50.742;6.432;2024-03-17T06:49:37;99299.34;;;7.37;72.76
50226;BME280;36113;50.742;6.432;2024-03-17T06:52:03;99306.16;;;7.51;72.44
50226;BME280;36113;50.742;6.432;2024-03-17T06:54:28;99297.31;;;7.56;72.07
50226;BME280;36113;50.742;6.432;2024-03-17T06:56:53;99289.78;;;7.58;72.66
50226;BME280;36113;50.742;6.432;2024-03-17T06:59:19;99294.09;;;7.71;72.62
50226;BME280;36113;50.742;6.432;2024-03-17T07:01:46;99291.34;;;7.82;72.37
50226;BME280;36113;50.742;6.432;2024-03-17T07:04:12;99295.09;;;7.81;72.68
50226;BME280;36113;50.742;6.432;2024-03-17T07:06:37;99306.31;;;7.73;73.41
50226;BME280;36113;50.742;6.432;2024-03-17T07:09:03;99303.84;;;7.72;73.58
50226;BME280;36113;50.742;6.432;2024-03-17T07:11:28;99308.81;;;7.63;74.24
50226;BME280;36113;50.742;6.432;2024-03-17T07:13:53;99285.81;;;7.49;74.35
50226;BME280;36113;50.742;6.432;2024-03-17T07:16:19;99307.50;;;7.65;74.51
50226;BME280;36113;50.742;6.432;2024-03-17T07:18:46;99300.56;;;7.70;74.45
50226;BME280;36113;50.742;6.432;2024-03-17T07:21:11;99289.13;;;7.79;73.73
50226;BME280;36113;50.742;6.432;2024-03-17T07:23:37;99298.09;;;7.97;73.50
50226;BME280;36113;50.742;6.432;2024-03-17T07:26:03;99316.00;;;8.15;72.63
50226;BME280;36113;50.742;6.432;2024-03-17T07:28:29;99329.91;;;8.18;72.56
50226;BME280;36113;50.742;6.432;2024-03-17T07:30:56;99304.28;;;8.09;72.06
50226;BME280;36113;50.742;6.432;2024-03-17T07:33:22;99315.19;;;8.14;71.42
50226;BME280;36113;50.742;6.432;2024-03-17T07:38:17;99325.22;;;8.14;71.96
50226;BME280;36113;50.742;6.432;2024-03-17T07:40:44;99325.56;;;8.17;72.08
50226;BME280;36113;50.742;6.432;2024-03-17T07:43:09;99312.59;;;8.19;72.06
50226;BME280;36113;50.742;6.432;2024-03-17T07:45:35;99298.28;;;8.07;72.30
50226;BME280;36113;50.742;6.432;2024-03-17T07:48:00;99320.47;;;8.21;72.33
50226;BME280;36113;50.742;6.432;2024-03-17T07:50:25;99287.94;;;8.04;71.80
50226;BME280;36113;50.742;6.432;2024-03-17T07:52:51;99317.00;;;8.25;71.78
50226;BME280;36113;50.742;6.432;2024-03-17T07:55:16;99327.13;;;8.30;71.42
50226;BME280;36113;50.742;6.432;2024-03-17T07:57:41;99292.56;;;8.20;71.65
50226;BME280;36113;50.742;6.432;2024-03-17T08:00:07;99328.91;;;8.53;71.74
50226;BME280;36113;50.742;6.432;2024-03-17T08:02:46;99318.00;;;8.48;71.25
50226;BME280;36113;50.742;6.432;2024-03-17T08:05:12;99317.00;;;8.54;71.47
50226;BME280;36113;50.742;6.432;2024-03-17T08:07:38;99316.25;;;8.59;71.74
50226;BME280;36113;50.742;6.432;2024-03-17T08:10:04;99304.84;;;8.74;72.16
50226;BME280;36113;50.742;6.432;2024-03-17T08:12:29;99304.75;;;8.85;71.86
50226;BME280;36113;50.742;6.432;2024-03-17T08:14:55;99286.25;;;8.99;71.38
50226;BME280;36113;50.742;6.432;2024-03-17T08:17:20;99303.44;;;9.27;70.84
50226;BME280;36113;50.742;6.432;2024-03-17T08:19:45;99300.44;;;9.45;70.56
50226;BME280;36113;50.742;6.432;2024-03-17T08:22:11;99284.09;;;9.62;69.75
50226;BME280;36113;50.742;6.432;2024-03-17T08:24:36;99292.22;;;9.84;69.48
50226;BME280;36113;50.742;6.432;2024-03-17T08:27:01;99310.94;;;10.08;68.68
50226;BME280;36113;50.742;6.432;2024-03-17T08:29:27;99303.66;;;10.13;68.07
50226;BME280;36113;50.742;6.432;2024-03-17T08:31:52;99298.94;;;10.04;67.63
50226;BME280;36113;50.742;6.432;2024-03-17T08:34:18;99292.00;;;10.18;68.43
50226;BME280;36113;50.742;6.432;2024-03-17T08:36:43;99268.41;;;10.19;68.22
50226;BME280;36113;50.742;6.432;2024-03-17T08:39:08;99279.75;;;10.43;68.07
50226;BME280;36113;50.742;6.432;2024-03-17T08:41:36;99269.78;;;10.53;68.04
50226;BME280;36113;50.742;6.432;2024-03-17T08:44:01;99276.13;;;10.64;67.07
50226;BME280;36113;50.742;6.432;2024-03-17T08:46:27;99248.09;;;10.59;66.88
50226;BME280;36113;50.742;6.432;2024-03-17T08:48:52;99271.38;;;10.87;66.36
50226;BME280;36113;50.742;6.432;2024-03-17T08:51:17;99278.59;;;11.03;65.90
50226;BME280;36113;50.742;6.432;2024-03-17T08:53:42;99285.41;;;11.11;66.08
50226;BME280;36113;50.742;6.432;2024-03-17T08:56:08;99278.84;;;11.07;65.62
50226;BME280;36113;50.742;6.432;2024-03-17T08:58:33;99265.22;;;10.96;65.53
50226;BME280;36113;50.742;6.432;2024-03-17T09:01:03;99253.53;;;11.01;66.01
50226;BME280;36113;50.742;6.432;2024-03-17T09:03:28;99260.22;;;11.31;66.18
50226;BME280;36113;50.742;6.432;2024-03-17T09:05:53;99270.13;;;11.57;65.56
50226;BME280;36113;50.742;6.432;2024-03-17T09:08:23;99274.75;;;11.62;64.39
50226;BME280;36113;50.742;6.432;2024-03-17T09:10:51;99280.56;;;11.76;64.96
50226;BME280;36113;50.742;6.432;2024-03-17T09:13:18;99272.63;;;11.79;64.95
50226;BME280;36113;50.742;6.432;2024-03-17T09:15:57;99282.50;;;11.91;64.64
50226;BME280;36113;50.742;6.432;2024-03-17T09:18:23;99283.38;;;12.07;64.42
50226;BME280;36113;50.742;6.432;2024-03-17T09:20:59;99273.03;;;12.14;63.78
50226;BME280;36113;50.742;6.432;2024-03-17T09:23:26;99294.28;;;12.12;63.37
50226;BME280;36113;50.742;6.432;2024-03-17T09:25:59;99292.63;;;12.06;63.58
50226;BME280;36113;50.742;6.432;2024-03-17T09:28:26;99288.81;;;11.91;63.70
50226;BME280;36113;50.742;6.432;2024-03-17T09:30:52;99290.97;;;11.89;63.64
50226;BME280;36113;50.742;6.432;2024-03-17T09:33:19;99290.47;;;12.08;63.38
50226;BME280;36113;50.742;6.432;2024-03-17T09:36:02;99296.22;;;12.37;63.51
50226;BME280;36113;50.742;6.432;2024-03-17T09:38:28;99273.31;;;12.63;62.62
50226;BME280;36113;50.742;6.432;2024-03-17T09:40:54;99287.78;;;12.84;61.70
50226;BME280;36113;50.742;6.432;2024-03-17T09:43:23;99286.38;;;12.92;60.99
50226;BME280;36113;50.742;6.432;2024-03-17T09:45:50;99281.44;;;12.99;61.69
50226;BME280;36113;50.742;6.432;2024-03-17T09:48:19;99288.59;;;12.95;60.92
50226;BME280;36113;50.742;6.432;2024-03-17T09:50:52;99296.22;;;12.98;60.40
50226;BME280;36113;50.742;6.432;2024-03-17T09:53:22;99296.44;;;13.12;59.84
50226;BME280;36113;50.742;6.432;2024-03-17T09:55:48;99296.47;;;13.17;59.83
50226;BME280;36113;50.742;6.432;2024-03-17T09:58:16;99300.00;;;13.18;59.90
50226;BME280;36113;50.742;6.432;2024-03-17T10:00:46;99292.66;;;13.03;60.40
50226;BME280;36113;50.742;6.432;2024-03-17T10:03:12;99265.34;;;13.03;61.04
50226;BME280;36113;50.742;6.432;2024-03-17T10:06:00;99275.94;;;13.25;59.79
50226;BME280;36113;50.742;6.432;2024-03-17T10:08:25;99293.97;;;13.36;59.17
50226;BME280;36113;50.742;6.432;2024-03-17T10:10:52;99255.22;;;13.19;59.32
50226;BME280;36113;50.742;6.432;2024-03-17T10:13:19;99285.78;;;13.31;60.05
50226;BME280;36113;50.742;6.432;2024-03-17T10:15:50;99282.19;;;13.46;60.48
50226;BME280;36113;50.742;6.432;2024-03-17T10:18:22;99288.19;;;13.48;60.42
50226;BME280;36113;50.742;6.432;2024-03-17T10:20:48;99281.88;;;13.58;59.90
50226;BME280;36113;50.742;6.432;2024-03-17T10:23:18;99248.31;;;13.47;58.57
50226;BME280;36113;50.742;6.432;2024-03-17T10:25:44;99259.94;;;13.73;58.80
50226;BME280;36113;50.742;6.432;2024-03-17T10:28:11;99284.91;;;14.06;58.17
50226;BME280;36113;50.742;6.432;2024-03-17T10:30:36;99280.22;;;14.12;57.47
50226;BME280;36113;50.742;6.432;2024-03-17T10:33:02;99261.25;;;13.86;57.41
50226;BME280;36113;50.742;6.432;2024-03-17T10:35:37;99284.81;;;14.21;57.11
50226;BME280;36113;50.742;6.432;2024-03-17T10:38:07;99284.72;;;14.32;57.02
50226;BME280;36113;50.742;6.432;2024-03-17T10:40:34;99279.03;;;14.28;56.29
50226;BME280;36113;50.742;6.432;2024-03-17T10:43:01;99279.56;;;14.25;57.25
50226;BME280;36113;50.742;6.432;2024-03-17T10:45:29;99289.13;;;14.27;57.85
50226;BME280;36113;50.742;6.432;2024-03-17T10:47:59;99264.50;;;14.27;57.35
50226;BME280;36113;50.742;6.432;2024-03-17T10:50:31;99277.00;;;14.39;57.15
50226;BME280;36113;50.742;6.432;2024-03-17T10:53:01;99270.81;;;14.28;55.99
50226;BME280;36113;50.742;6.432;2024-03-17T10:55:32;99271.63;;;14.28;57.33
50226;BME280;36113;50.742;6.432;2024-03-17T10:57:58;99277.88;;;14.34;57.14
50226;BME280;36113;50.742;6.432;2024-03-17T11:00:26;99286.31;;;14.38;57.20
50226;BME280;36113;50.742;6.432;2024-03-17T11:02:54;99281.75;;;14.28;56.73
50226;BME280;36113;50.742;6.432;2024-03-17T11:05:24;99280.47;;;14.10;56.03
50226;BME280;36113;50.742;6.432;2024-03-17T11:07:53;99287.50;;;13.82;56.01
50226;BME280;36113;50.742;6.432;2024-03-17T11:10:27;99287.03;;;13.64;56.97
50226;BME280;36113;50.742;6.432;2024-03-17T11:12:57;99283.78;;;13.57;55.93
50226;BME280;36113;50.742;6.432;2024-03-17T11:17:51;99290.78;;;13.84;57.12
50226;BME280;36113;50.742;6.432;2024-03-17T11:20:28;99289.84;;;14.04;56.45
50226;BME280;36113;50.742;6.432;2024-03-17T11:22:58;99280.78;;;14.08;56.30
50226;BME280;36113;50.742;6.432;2024-03-17T11:27:58;99269.88;;;14.43;56.10
50226;BME280;36113;50.742;6.432;2024-03-17T11:38:55;99276.44;;;14.81;53.76
50226;BME280;36113;50.742;6.432;2024-03-17T11:41:36;99281.38;;;14.79;52.35
50226;BME280;36113;50.742;6.432;2024-03-17T11:51:51;99275.84;;;14.84;53.76
50226;BME280;36113;50.742;6.432;2024-03-17T11:54:22;99267.22;;;14.96;54.02
50226;BME280;36113;50.742;6.432;2024-03-17T11:56:50;99270.75;;;15.02;53.07
50226;BME280;36113;50.742;6.432;2024-03-17T11:59:19;99242.31;;;14.98;52.56
50226;BME280;36113;50.742;6.432;2024-03-17T12:01:48;99252.81;;;15.15;52.06
50226;BME280;36113;50.742;6.432;2024-03-17T12:04:15;99260.16;;;15.19;52.59
50226;BME280;36113;50.742;6.432;2024-03-17T12:14:18;99249.47;;;15.66;52.38
50226;BME280;36113;50.742;6.432;2024-03-17T12:16:52;99240.31;;;15.51;51.54
50226;BME280;36113;50.742;6.432;2024-03-17T12:19:18;99207.63;;;15.36;51.87
50226;BME280;36113;50.742;6.432;2024-03-17T12:21:46;99218.53;;;15.41;51.66
50226;BME280;36113;50.742;6.432;2024-03-17T12:26:43;99221.81;;;15.19;51.06
50226;BME280;36113;50.742;6.432;2024-03-17T12:32:00;99217.97;;;15.20;53.06
50226;BME280;36113;50.742;6.432;2024-03-17T12:34:30;99203.22;;;15.16;54.66
50226;BME280;36113;50.742;6.432;2024-03-17T12:36:56;99200.56;;;15.11;53.01
50226;BME280;36113;50.742;6.432;2024-03-17T12:39:27;99183.84;;;14.88;53.05
50226;BME280;36113;50.742;6.432;2024-03-17T12:42:07;99178.56;;;14.92;53.96
50226;BME280;36113;50.742;6.432;2024-03-17T12:44:52;99184.06;;;14.92;51.73
50226;BME280;36113;50.742;6.432;2024-03-17T12:47:21;99165.72;;;14.68;47.32
50226;BME280;36113;50.742;6.432;2024-03-17T12:49:57;99175.66;;;14.59;47.16
50226;BME280;36113;50.742;6.432;2024-03-17T12:52:30;99177.66;;;14.48;48.51
50226;BME280;36113;50.742;6.432;2024-03-17T12:55:02;99183.13;;;14.48;49.25
50226;BME280;36113;50.742;6.432;2024-03-17T12:57:47;99172.00;;;14.40;50.67
50226;BME280;36113;50.742;6.432;2024-03-17T13:00:31;99175.63;;;14.30;51.85
50226;BME280;36113;50.742;6.432;2024-03-17T13:02:57;99169.97;;;14.21;52.33
50226;BME280;36113;50.742;6.432;2024-03-17T13:05:23;99159.94;;;14.12;53.40
50226;BME280;36113;50.742;6.432;2024-03-17T13:07:49;99167.56;;;14.15;53.95
50226;BME280;36113;50.742;6.432;2024-03-17T13:10:18;99168.59;;;14.19;54.38
50226;BME280;36113;50.742;6.432;2024-03-17T13:12:45;99179.53;;;14.19;54.03
50226;BME280;36113;50.742;6.432;2024-03-17T13:15:13;99160.19;;;14.10;54.59
50226;BME280;36113;50.742;6.432;2024-03-17T13:17:39;99153.06;;;14.14;55.82
50226;BME280;36113;50.742;6.432;2024-03-17T13:20:07;99139.72;;;14.07;55.64
50226;BME280;36113;50.742;6.432;2024-03-17T13:22:36;99148.13;;;14.16;54.79
50226;BME280;36113;50.742;6.432;2024-03-17T13:25:04;99148.09;;;14.21;54.47
50226;BME280;36113;50.742;6.432;2024-03-17T13:27:29;99152.13;;;14.29;54.81
50226;BME280;36113;50.742;6.432;2024-03-17T13:29:55;99147.94;;;14.37;54.37
50226;BME280;36113;50.742;6.432;2024-03-17T13:32:20;99150.44;;;14.33;52.91
50226;BME280;36113;50.742;6.432;2024-03-17T13:34:45;99153.66;;;14.40;53.14
50226;BME280;36113;50.742;6.432;2024-03-17T13:37:11;99144.34;;;14.41;52.64
50226;BME280;36113;50.742;6.432;2024-03-17T13:39:36;99135.50;;;14.49;52.94
50226;BME280;36113;50.742;6.432;2024-03-17T13:42:01;99131.56;;;14.66;54.02
50226;BME280;36113;50.742;6.432;2024-03-17T13:44:30;99135.66;;;14.87;52.96
50226;BME280;36113;50.742;6.432;2024-03-17T13:46:56;99147.56;;;15.02;51.63